createdAt,value
2023-01-25T00:01:31.759Z,3
2023-01-25T00:06:33.475Z,2
2023-01-25T00:11:35.200Z,3
2023-01-25T00:16:37.504Z,3
2023-01-25T00:21:39.494Z,5
2023-01-25T00:26:41.406Z,5
2023-01-25T00:31:43.255Z,3
2023-01-25T00:36:45.178Z,6
2023-01-25T00:41:47.140Z,6
2023-01-25T00:46:49.038Z,6
2023-01-25T00:51:50.811Z,7
2023-01-25T00:56:52.812Z,5
2023-01-25T01:01:54.676Z,6
2023-01-25T01:06:56.821Z,5
2023-01-25T01:11:58.689Z,5
2023-01-25T01:17:00.459Z,7
2023-01-25T01:22:02.458Z,6
2023-01-25T01:27:04.420Z,3
2023-01-25T01:32:06.449Z,5
2023-01-25T01:37:08.329Z,6
2023-01-25T01:42:10.018Z,5
2023-01-25T01:47:11.634Z,5
2023-01-25T01:52:13.297Z,5
2023-01-25T01:57:15.001Z,3
2023-01-25T02:02:16.918Z,5
2023-01-25T02:07:18.676Z,5
2023-01-25T02:12:20.357Z,3
2023-01-25T02:17:22.040Z,5
2023-01-25T02:22:23.693Z,5
2023-01-25T02:27:25.347Z,6
2023-01-25T02:32:27.070Z,5
2023-01-25T02:37:28.743Z,3
2023-01-25T02:42:30.361Z,6
2023-01-25T02:47:31.945Z,6
2023-01-25T02:52:33.554Z,6
2023-01-25T02:57:35.234Z,5
2023-01-25T03:02:36.929Z,5
2023-01-25T03:07:38.704Z,7
2023-01-25T03:12:40.301Z,7
2023-01-25T03:17:41.925Z,3
2023-01-25T03:22:43.585Z,6
2023-01-25T03:27:45.206Z,6
2023-01-25T03:32:46.831Z,5
2023-01-25T03:37:48.472Z,6
2023-01-25T03:42:50.164Z,6
2023-01-25T03:47:52.131Z,6
2023-01-25T03:52:53.750Z,5
2023-01-25T03:57:55.371Z,6
2023-01-25T04:02:57.072Z,5
2023-01-25T04:07:58.700Z,6
2023-01-25T04:13:00.897Z,5
2023-01-25T04:18:02.795Z,5
2023-01-25T04:23:04.408Z,5
2023-01-25T04:28:06.090Z,5
2023-01-25T04:33:07.751Z,6
2023-01-25T04:38:09.406Z,6
2023-01-25T04:43:11.709Z,3
2023-01-25T04:48:13.679Z,3
2023-01-25T04:53:15.335Z,5
2023-01-25T04:58:16.999Z,5
2023-01-25T05:03:18.612Z,2
2023-01-25T05:08:20.256Z,3
2023-01-25T05:13:21.905Z,3
2023-01-25T05:18:23.594Z,3
2023-01-25T05:23:25.259Z,5
2023-01-25T05:28:26.909Z,4
2023-01-25T05:33:28.863Z,3
2023-01-25T05:38:30.490Z,5
2023-01-25T05:43:32.356Z,5
2023-01-25T05:48:34.015Z,11
2023-01-25T05:53:35.792Z,5
2023-01-25T05:58:37.554Z,3
2023-01-25T06:03:39.340Z,4
2023-01-25T06:08:40.951Z,3
2023-01-25T06:13:43.610Z,1
2023-01-25T06:18:45.315Z,3
2023-01-25T06:23:47.022Z,4
2023-01-25T06:28:48.845Z,5
2023-01-25T06:33:50.720Z,4
2023-01-25T06:38:52.384Z,2
2023-01-25T06:43:54.142Z,1
2023-01-25T06:48:55.817Z,2
2023-01-25T06:53:57.448Z,2
2023-01-25T06:58:59.409Z,2
2023-01-25T07:04:01.083Z,2
2023-01-25T07:09:02.687Z,2
2023-01-25T07:14:04.345Z,3
2023-01-25T07:19:06.004Z,2
2023-01-25T07:24:07.737Z,1
2023-01-25T07:29:10.532Z,2
2023-01-25T07:34:12.341Z,3
2023-01-25T07:39:13.964Z,3
2023-01-25T07:44:15.919Z,3
2023-01-25T07:49:17.594Z,2
2023-01-25T07:54:19.218Z,3
2023-01-25T07:59:20.836Z,5
2023-01-25T08:04:22.524Z,3
2023-01-25T08:09:24.159Z,3
2023-01-25T08:14:25.809Z,4
2023-01-25T08:19:27.792Z,4
2023-01-25T08:24:29.436Z,3
2023-01-25T08:29:31.119Z,3
2023-01-25T08:34:32.818Z,3
2023-01-25T08:39:34.468Z,4
2023-01-25T08:44:36.147Z,3
2023-01-25T08:49:37.783Z,2
2023-01-25T08:54:39.542Z,3
2023-01-25T08:59:41.247Z,2
2023-01-25T09:04:42.938Z,2
2023-01-25T09:09:45.256Z,3
2023-01-25T09:14:47.012Z,3
2023-01-25T09:19:48.819Z,3
2023-01-25T09:24:50.751Z,2
2023-01-25T09:30:01.510Z,3
2023-01-25T09:35:04.282Z,3
2023-01-25T09:40:05.914Z,3
2023-01-25T09:45:07.860Z,4
2023-01-25T09:50:10.084Z,4
2023-01-25T09:55:12.043Z,4
2023-01-25T10:00:14.166Z,4
2023-01-25T10:05:16.185Z,4
2023-01-25T10:10:17.880Z,4
2023-01-25T10:15:19.516Z,3
2023-01-25T10:20:21.221Z,3
2023-01-25T10:25:22.929Z,3
2023-01-25T10:30:24.618Z,3
2023-01-25T10:35:35.410Z,2
2023-01-25T10:40:38.032Z,3
2023-01-25T10:45:39.744Z,4
2023-01-25T10:50:41.377Z,4
2023-01-25T10:55:42.990Z,4
2023-01-25T11:00:44.845Z,4
2023-01-25T11:05:46.606Z,3
2023-01-25T11:10:48.211Z,4
2023-01-25T11:15:50.016Z,7
2023-01-25T11:20:51.635Z,3
2023-01-25T11:25:53.293Z,4
2023-01-25T11:30:55.138Z,5
2023-01-25T11:35:56.810Z,5
2023-01-25T11:40:58.457Z,3
2023-01-25T11:46:00.178Z,3
2023-01-25T11:51:01.869Z,3
2023-01-25T11:56:03.564Z,3
2023-01-25T12:01:05.318Z,5
2023-01-25T12:06:06.942Z,6
2023-01-25T12:11:08.568Z,7
2023-01-25T12:16:10.205Z,6
2023-01-25T12:21:15.202Z,5
2023-01-25T12:26:19.049Z,3
2023-01-25T12:31:20.817Z,3
2023-01-25T12:36:22.479Z,6
2023-01-25T12:41:24.170Z,6
2023-01-25T12:46:25.827Z,6
2023-01-25T12:51:27.449Z,5
2023-01-25T12:56:29.049Z,5
2023-01-25T13:01:30.728Z,6
2023-01-25T13:06:32.343Z,5
2023-01-25T13:11:33.941Z,5
2023-01-25T13:16:35.671Z,5
2023-01-25T13:21:37.336Z,5
2023-01-25T13:26:38.973Z,5
2023-01-25T13:31:52.088Z,5
2023-01-25T13:36:54.419Z,6
2023-01-25T13:41:56.722Z,6
2023-01-25T13:46:58.351Z,6
2023-01-25T13:51:59.985Z,5
2023-01-25T13:57:01.709Z,7
2023-01-25T14:02:03.471Z,7
2023-01-25T14:07:05.138Z,6
2023-01-25T14:12:06.847Z,6
2023-01-25T14:17:08.555Z,10
2023-01-25T14:22:10.298Z,10
2023-01-25T14:27:11.984Z,11
2023-01-25T14:32:13.651Z,7
2023-01-25T14:37:15.438Z,8
2023-01-25T14:42:17.004Z,7
2023-01-25T14:47:18.589Z,7
2023-01-25T14:52:20.295Z,6
2023-01-25T14:57:21.952Z,8
2023-01-25T15:02:23.571Z,7
2023-01-25T15:07:25.233Z,6
2023-01-25T15:12:31.154Z,6
2023-01-25T15:17:37.439Z,7
2023-01-25T15:22:39.155Z,7
2023-01-25T15:27:40.757Z,8
2023-01-25T15:32:42.453Z,6
2023-01-25T15:37:44.185Z,6
2023-01-25T15:42:45.791Z,7
2023-01-25T15:47:47.430Z,10
2023-01-25T15:52:49.069Z,6
2023-01-25T15:57:50.680Z,6
2023-01-25T16:02:52.483Z,7
2023-01-25T16:07:54.133Z,6
2023-01-25T16:12:55.864Z,5
2023-01-25T16:17:57.547Z,6
2023-01-25T16:22:59.324Z,6
2023-01-25T16:28:01.051Z,6
2023-01-25T16:33:05.270Z,6
2023-01-25T16:38:07.092Z,7
2023-01-25T16:43:08.801Z,5
2023-01-25T16:48:10.501Z,5
2023-01-25T16:53:12.156Z,6
2023-01-25T16:58:13.821Z,6
2023-01-25T17:03:15.554Z,6
2023-01-25T17:08:17.294Z,6
2023-01-25T17:13:19.021Z,7
2023-01-25T17:18:20.687Z,6
2023-01-25T17:23:22.513Z,6
2023-01-25T17:28:24.154Z,7
2023-01-25T17:33:25.832Z,7
2023-01-25T17:38:27.537Z,6
2023-01-25T17:43:29.189Z,8
2023-01-25T17:48:31.070Z,6
2023-01-25T17:53:32.856Z,11
2023-01-25T17:58:34.634Z,7
2023-01-25T18:03:36.313Z,6
2023-01-25T18:08:38.164Z,7
2023-01-25T18:13:40.251Z,7
2023-01-25T18:18:41.900Z,5
2023-01-25T18:23:43.800Z,7
2023-01-25T18:28:45.705Z,6
2023-01-25T18:33:47.316Z,8
2023-01-25T18:38:48.969Z,7
2023-01-25T18:43:50.620Z,5
2023-01-25T18:48:52.603Z,5
2023-01-25T18:53:54.257Z,6
2023-01-25T18:58:56.163Z,5
2023-01-25T19:03:57.995Z,6
2023-01-25T19:08:59.838Z,8
2023-01-25T19:14:01.776Z,8
2023-01-25T19:19:03.476Z,8
2023-01-25T19:24:07.280Z,8
2023-01-25T19:29:08.938Z,12
2023-01-25T19:34:10.546Z,7
2023-01-25T19:39:12.160Z,6
2023-01-25T19:44:13.932Z,6
2023-01-25T19:49:15.705Z,6
2023-01-25T19:54:17.344Z,6
2023-01-25T19:59:18.956Z,8
2023-01-25T20:04:20.574Z,6
2023-01-25T20:09:22.279Z,6
2023-01-25T20:14:24.101Z,6
2023-01-25T20:19:25.781Z,7
2023-01-25T20:24:27.621Z,5
2023-01-25T20:29:29.419Z,6
2023-01-25T20:34:31.037Z,5
2023-01-25T20:39:32.715Z,6
2023-01-25T20:44:34.370Z,6
2023-01-25T20:49:36.113Z,7
2023-01-25T20:54:37.830Z,7
2023-01-25T20:59:39.499Z,6
2023-01-25T21:04:41.152Z,6
2023-01-25T21:09:43.058Z,7
2023-01-25T21:14:44.783Z,6
2023-01-25T21:19:46.444Z,6
2023-01-25T21:24:48.189Z,5
2023-01-25T21:29:49.833Z,5
2023-01-25T21:34:51.606Z,5
2023-01-25T21:39:53.251Z,6
2023-01-25T21:44:54.897Z,6
2023-01-25T21:49:56.655Z,5
2023-01-25T21:54:58.297Z,7
2023-01-25T21:59:59.956Z,7
2023-01-25T22:05:01.661Z,6
2023-01-25T22:10:03.502Z,5
2023-01-25T22:15:05.128Z,6
2023-01-25T22:20:06.787Z,7
2023-01-25T22:25:08.434Z,5
2023-01-25T22:30:10.582Z,6
2023-01-25T22:35:12.376Z,6
2023-01-25T22:40:14.112Z,7
2023-01-25T22:45:15.746Z,7
2023-01-25T22:50:17.592Z,6
2023-01-25T22:55:19.250Z,7
2023-01-25T23:00:20.896Z,5
2023-01-25T23:05:22.566Z,6
2023-01-25T23:10:24.171Z,3
2023-01-25T23:15:25.832Z,5
2023-01-25T23:20:27.467Z,6
2023-01-25T23:25:29.173Z,6
2023-01-25T23:30:30.800Z,6
2023-01-25T23:35:32.394Z,5
2023-01-25T23:40:34.079Z,7
2023-01-25T23:45:35.761Z,6
2023-01-25T23:50:37.537Z,7
2023-01-25T23:55:39.238Z,7
